sensor_id;sensor_type;location;lat;lon;timestamp;pressure;altitude;pressure_sealevel;temperature;humidity
69198;BME280;56311;50.298;8.514;2022-12-07T00:01:32;97798.81;;;1.39;100.00
69198;BME280;56311;50.298;8.514;2022-12-07T00:04:03;97790.22;;;1.37;100.00
69198;BME280;56311;50.298;8.514;2022-12-07T00:06:34;97792.88;;;1.37;100.00
69198;BME280;56311;50.298;8.514;2022-12-07T00:09:02;97781.97;;;1.38;100.00
69198;BME280;56311;50.298;8.514;2022-12-07T00:11:28;97787.53;;;1.37;100.00
69198;BME280;56311;50.298;8.514;2022-12-07T00:13:58;97795.78;;;1.35;100.00
69198;BME280;56311;50.298;8.514;2022-12-07T00:16:27;97784.88;;;1.37;100.00
69198;BME280;56311;50.298;8.514;2022-12-07T00:18:54;97786.00;;;1.29;100.00
69198;BME280;56311;50.298;8.514;2022-12-07T00:21:25;97783.81;;;2.04;100.00
69198;BME280;56311;50.298;8.514;2022-12-07T00:23:53;97777.69;;;2.39;100.00
69198;BME280;56311;50.298;8.514;2022-12-07T00:26:22;97774.06;;;1.98;100.00
69198;BME280;56311;50.298;8.514;2022-12-07T00:28:50;97774.28;;;1.72;100.00
69198;BME280;56311;50.298;8.514;2022-12-07T00:31:19;97774.47;;;1.59;100.00
69198;BME280;56311;50.298;8.514;2022-12-07T00:33:46;97765.91;;;1.45;100.00
69198;BME280;56311;50.298;8.514;2022-12-07T00:36:15;97776.53;;;1.33;100.00
69198;BME280;56311;50.298;8.514;2022-12-07T00:38:43;97768.53;;;1.33;100.00
69198;BME280;56311;50.298;8.514;2022-12-07T00:41:12;97760.88;;;1.37;100.00
69198;BME280;56311;50.298;8.514;2022-12-07T00:43:40;97755.78;;;1.35;100.00
69198;BME280;56311;50.298;8.514;2022-12-07T00:46:07;97752.06;;;1.36;100.00
69198;BME280;56311;50.298;8.514;2022-12-07T00:48:34;62402.38;;;-147.88;100.00
69198;BME280;56311;50.298;8.514;2022-12-07T00:51:01;62402.38;;;-147.88;100.00
69198;BME280;56311;50.298;8.514;2022-12-07T00:53:28;97765.25;;;1.31;100.00
69198;BME280;56311;50.298;8.514;2022-12-07T00:55:56;97766.22;;;1.37;100.00
69198;BME280;56311;50.298;8.514;2022-12-07T00:58:23;97759.63;;;1.39;100.00
69198;BME280;56311;50.298;8.514;2022-12-07T01:00:50;97763.06;;;1.40;100.00
69198;BME280;56311;50.298;8.514;2022-12-07T01:03:20;97759.38;;;1.41;100.00
69198;BME280;56311;50.298;8.514;2022-12-07T01:05:50;97747.78;;;1.47;100.00
69198;BME280;56311;50.298;8.514;2022-12-07T01:08:17;97755.00;;;1.47;100.00
69198;BME280;56311;50.298;8.514;2022-12-07T01:10:45;97747.00;;;1.47;100.00
69198;BME280;56311;50.298;8.514;2022-12-07T01:13:13;97755.22;;;1.45;100.00
69198;BME280;56311;50.298;8.514;2022-12-07T01:15:40;97752.56;;;1.45;100.00
69198;BME280;56311;50.298;8.514;2022-12-07T01:18:07;97745.38;;;1.46;100.00
69198;BME280;56311;50.298;8.514;2022-12-07T01:20:34;97747.44;;;1.43;100.00
69198;BME280;56311;50.298;8.514;2022-12-07T01:23:01;97756.03;;;1.46;100.00
69198;BME280;56311;50.298;8.514;2022-12-07T01:25:28;97754.56;;;1.50;100.00
69198;BME280;56311;50.298;8.514;2022-12-07T01:27:55;97747.78;;;1.47;100.00
69198;BME280;56311;50.298;8.514;2022-12-07T01:30:22;97752.31;;;1.47;100.00
69198;BME280;56311;50.298;8.514;2022-12-07T01:32:49;97754.63;;;1.43;100.00
69198;BME280;56311;50.298;8.514;2022-12-07T01:35:16;97754.28;;;1.39;100.00
69198;BME280;56311;50.298;8.514;2022-12-07T01:37:43;97754.88;;;1.41;100.00
69198;BME280;56311;50.298;8.514;2022-12-07T01:40:10;97751.63;;;1.39;100.00
69198;BME280;56311;50.298;8.514;2022-12-07T01:42:37;97757.75;;;1.40;100.00
69198;BME280;56311;50.298;8.514;2022-12-07T01:45:39;97752.22;;;1.41;100.00
69198;BME280;56311;50.298;8.514;2022-12-07T01:48:08;97752.53;;;1.33;100.00
69198;BME280;56311;50.298;8.514;2022-12-07T01:50:36;97742.44;;;1.23;100.00
69198;BME280;56311;50.298;8.514;2022-12-07T01:53:06;97739.59;;;1.18;100.00
69198;BME280;56311;50.298;8.514;2022-12-07T01:55:37;97736.75;;;1.20;100.00
69198;BME280;56311;50.298;8.514;2022-12-07T01:58:05;97738.13;;;1.22;100.00
69198;BME280;56311;50.298;8.514;2022-12-07T02:00:33;97739.66;;;1.30;100.00
69198;BME280;56311;50.298;8.514;2022-12-07T02:03:04;97743.59;;;1.27;100.00
69198;BME280;56311;50.298;8.514;2022-12-07T02:05:34;97731.75;;;1.23;100.00
69198;BME280;56311;50.298;8.514;2022-12-07T02:08:02;97731.75;;;1.23;100.00
69198;BME280;56311;50.298;8.514;2022-12-07T02:10:30;62402.38;;;-147.88;100.00
69198;BME280;56311;50.298;8.514;2022-12-07T02:13:01;97728.19;;;1.30;100.00
69198;BME280;56311;50.298;8.514;2022-12-07T02:15:36;97730.97;;;1.35;100.00
69198;BME280;56311;50.298;8.514;2022-12-07T02:18:09;97716.97;;;1.39;100.00
69198;BME280;56311;50.298;8.514;2022-12-07T02:20:45;97717.88;;;1.33;100.00
69198;BME280;56311;50.298;8.514;2022-12-07T02:23:33;97713.00;;;1.30;100.00
69198;BME280;56311;50.298;8.514;2022-12-07T02:26:23;97709.97;;;1.26;100.00
69198;BME280;56311;50.298;8.514;2022-12-07T02:29:08;97701.53;;;1.30;100.00
69198;BME280;56311;50.298;8.514;2022-12-07T02:31:53;97694.22;;;1.25;100.00
69198;BME280;56311;50.298;8.514;2022-12-07T02:34:28;97702.66;;;1.22;100.00
69198;BME280;56311;50.298;8.514;2022-12-07T02:37:01;97706.16;;;1.22;100.00
69198;BME280;56311;50.298;8.514;2022-12-07T02:39:37;97712.06;;;1.24;100.00
69198;BME280;56311;50.298;8.514;2022-12-07T02:42:12;97715.31;;;1.26;100.00
69198;BME280;56311;50.298;8.514;2022-12-07T02:44:42;97714.03;;;1.29;100.00
69198;BME280;56311;50.298;8.514;2022-12-07T02:47:12;97704.91;;;1.37;100.00
69198;BME280;56311;50.298;8.514;2022-12-07T02:49:41;97708.00;;;1.34;100.00
69198;BME280;56311;50.298;8.514;2022-12-07T02:52:08;97701.75;;;1.40;100.00
69198;BME280;56311;50.298;8.514;2022-12-07T02:54:35;97708.97;;;1.39;100.00
69198;BME280;56311;50.298;8.514;2022-12-07T02:57:08;97704.56;;;1.33;100.00
69198;BME280;56311;50.298;8.514;2022-12-07T02:59:50;97703.28;;;1.36;100.00
69198;BME280;56311;50.298;8.514;2022-12-07T03:02:26;97709.66;;;1.35;100.00
69198;BME280;56311;50.298;8.514;2022-12-07T03:04:57;97703.50;;;1.34;100.00
69198;BME280;56311;50.298;8.514;2022-12-07T03:07:33;97706.53;;;1.38;100.00
69198;BME280;56311;50.298;8.514;2022-12-07T03:10:09;97702.25;;;1.37;100.00
69198;BME280;56311;50.298;8.514;2022-12-07T03:12:44;62402.38;;;-147.88;100.00
69198;BME280;56311;50.298;8.514;2022-12-07T03:15:18;62402.38;;;-147.88;100.00
69198;BME280;56311;50.298;8.514;2022-12-07T03:17:49;62402.38;;;-147.88;100.00
69198;BME280;56311;50.298;8.514;2022-12-07T03:20:19;62402.38;;;-147.88;100.00
69198;BME280;56311;50.298;8.514;2022-12-07T03:22:54;62402.38;;;-147.88;100.00
69198;BME280;56311;50.298;8.514;2022-12-07T03:25:22;62402.38;;;-147.88;100.00
69198;BME280;56311;50.298;8.514;2022-12-07T03:27:52;62402.38;;;-147.88;100.00
69198;BME280;56311;50.298;8.514;2022-12-07T03:30:27;62402.38;;;-147.88;100.00
69198;BME280;56311;50.298;8.514;2022-12-07T03:32:56;62402.38;;;-147.88;100.00
69198;BME280;56311;50.298;8.514;2022-12-07T03:35:28;62402.38;;;-147.88;100.00
69198;BME280;56311;50.298;8.514;2022-12-07T03:37:58;62402.38;;;-147.88;100.00
69198;BME280;56311;50.298;8.514;2022-12-07T03:40:30;62402.38;;;-147.88;100.00
69198;BME280;56311;50.298;8.514;2022-12-07T03:43:00;62402.38;;;-147.88;100.00
69198;BME280;56311;50.298;8.514;2022-12-07T03:45:33;62402.38;;;-147.88;100.00
69198;BME280;56311;50.298;8.514;2022-12-07T03:48:07;62402.38;;;-147.88;100.00
69198;BME280;56311;50.298;8.514;2022-12-07T03:50:40;62402.38;;;-147.88;100.00
69198;BME280;56311;50.298;8.514;2022-12-07T03:53:14;62402.38;;;-147.88;100.00
69198;BME280;56311;50.298;8.514;2022-12-07T03:55:44;62402.38;;;-147.88;100.00
69198;BME280;56311;50.298;8.514;2022-12-07T03:58:15;62402.38;;;-147.88;100.00
69198;BME280;56311;50.298;8.514;2022-12-07T04:00:46;62402.38;;;-147.88;100.00
69198;BME280;56311;50.298;8.514;2022-12-07T04:03:13;62402.38;;;-147.88;100.00
69198;BME280;56311;50.298;8.514;2022-12-07T04:05:40;62402.38;;;-147.88;100.00
69198;BME280;56311;50.298;8.514;2022-12-07T04:08:09;62402.38;;;-147.88;100.00
69198;BME280;56311;50.298;8.514;2022-12-07T04:10:36;62402.38;;;-147.88;100.00
69198;BME280;56311;50.298;8.514;2022-12-07T04:13:03;62402.38;;;-147.88;100.00
69198;BME280;56311;50.298;8.514;2022-12-07T04:15:29;62402.38;;;-147.88;100.00
69198;BME280;56311;50.298;8.514;2022-12-07T04:17:58;62402.38;;;-147.88;100.00
69198;BME280;56311;50.298;8.514;2022-12-07T04:20:24;62402.38;;;-147.88;100.00
69198;BME280;56311;50.298;8.514;2022-12-07T04:22:51;62402.38;;;-147.88;100.00
69198;BME280;56311;50.298;8.514;2022-12-07T04:25:18;62402.38;;;-147.88;100.00
69198;BME280;56311;50.298;8.514;2022-12-07T04:27:45;62402.38;;;-147.88;100.00
69198;BME280;56311;50.298;8.514;2022-12-07T04:30:12;62402.38;;;-147.88;100.00
69198;BME280;56311;50.298;8.514;2022-12-07T04:32:38;62402.38;;;-147.88;100.00
69198;BME280;56311;50.298;8.514;2022-12-07T04:35:08;62402.38;;;-147.88;100.00
69198;BME280;56311;50.298;8.514;2022-12-07T04:37:35;62402.38;;;-147.88;100.00
69198;BME280;56311;50.298;8.514;2022-12-07T04:40:05;62402.38;;;-147.88;100.00
69198;BME280;56311;50.298;8.514;2022-12-07T04:42:32;62402.38;;;-147.88;100.00
69198;BME280;56311;50.298;8.514;2022-12-07T04:44:58;62402.38;;;-147.88;100.00
69198;BME280;56311;50.298;8.514;2022-12-07T04:47:25;62402.38;;;-147.88;100.00
69198;BME280;56311;50.298;8.514;2022-12-07T04:49:52;62402.38;;;-147.88;100.00
69198;BME280;56311;50.298;8.514;2022-12-07T04:52:20;62402.38;;;-147.88;100.00
69198;BME280;56311;50.298;8.514;2022-12-07T04:54:47;62402.38;;;-147.88;100.00
69198;BME280;56311;50.298;8.514;2022-12-07T04:57:13;62402.38;;;-147.88;100.00
69198;BME280;56311;50.298;8.514;2022-12-07T04:59:40;62402.38;;;-147.88;100.00
69198;BME280;56311;50.298;8.514;2022-12-07T05:02:11;62402.38;;;-147.88;100.00
69198;BME280;56311;50.298;8.514;2022-12-07T05:04:38;62402.38;;;-147.88;100.00
69198;BME280;56311;50.298;8.514;2022-12-07T05:07:05;62402.38;;;-147.88;100.00
69198;BME280;56311;50.298;8.514;2022-12-07T05:09:33;62402.38;;;-147.88;100.00
69198;BME280;56311;50.298;8.514;2022-12-07T05:11:59;62402.38;;;-147.88;100.00
69198;BME280;56311;50.298;8.514;2022-12-07T05:14:26;62402.38;;;-147.88;100.00
69198;BME280;56311;50.298;8.514;2022-12-07T05:16:53;62402.38;;;-147.88;100.00
69198;BME280;56311;50.298;8.514;2022-12-07T05:19:20;62402.38;;;-147.88;100.00
69198;BME280;56311;50.298;8.514;2022-12-07T05:21:47;62402.38;;;-147.88;100.00
69198;BME280;56311;50.298;8.514;2022-12-07T05:24:15;62402.38;;;-147.88;100.00
69198;BME280;56311;50.298;8.514;2022-12-07T05:26:44;62402.38;;;-147.88;100.00
69198;BME280;56311;50.298;8.514;2022-12-07T05:29:12;62402.38;;;-147.88;100.00
69198;BME280;56311;50.298;8.514;2022-12-07T05:31:39;62402.38;;;-147.88;100.00
69198;BME280;56311;50.298;8.514;2022-12-07T05:34:06;62402.38;;;-147.88;100.00
69198;BME280;56311;50.298;8.514;2022-12-07T05:36:33;62402.38;;;-147.88;100.00
69198;BME280;56311;50.298;8.514;2022-12-07T05:38:59;62402.38;;;-147.88;100.00
69198;BME280;56311;50.298;8.514;2022-12-07T05:41:26;62402.38;;;-147.88;100.00
69198;BME280;56311;50.298;8.514;2022-12-07T05:44:13;62402.38;;;-147.88;100.00
69198;BME280;56311;50.298;8.514;2022-12-07T05:46:39;62402.38;;;-147.88;100.00
69198;BME280;56311;50.298;8.514;2022-12-07T05:49:06;62402.38;;;-147.88;100.00
69198;BME280;56311;50.298;8.514;2022-12-07T05:51:33;62402.38;;;-147.88;100.00
69198;BME280;56311;50.298;8.514;2022-12-07T05:54:00;62402.38;;;-147.88;100.00
69198;BME280;56311;50.298;8.514;2022-12-07T05:56:26;62402.38;;;-147.88;100.00
69198;BME280;56311;50.298;8.514;2022-12-07T05:58:54;62402.38;;;-147.88;100.00
69198;BME280;56311;50.298;8.514;2022-12-07T06:01:40;62402.38;;;-147.88;100.00
69198;BME280;56311;50.298;8.514;2022-12-07T06:04:07;62402.38;;;-147.88;100.00
69198;BME280;56311;50.298;8.514;2022-12-07T06:06:34;62402.38;;;-147.88;100.00
69198;BME280;56311;50.298;8.514;2022-12-07T06:09:01;62402.38;;;-147.88;100.00
69198;BME280;56311;50.298;8.514;2022-12-07T06:11:28;62402.38;;;-147.88;100.00
69198;BME280;56311;50.298;8.514;2022-12-07T06:14:14;62402.38;;;-147.88;100.00
69198;BME280;56311;50.298;8.514;2022-12-07T06:16:42;62402.38;;;-147.88;100.00
69198;BME280;56311;50.298;8.514;2022-12-07T06:19:09;62402.38;;;-147.88;100.00
69198;BME280;56311;50.298;8.514;2022-12-07T06:21:36;62402.38;;;-147.88;100.00
69198;BME280;56311;50.298;8.514;2022-12-07T06:24:03;62402.38;;;-147.88;100.00
69198;BME280;56311;50.298;8.514;2022-12-07T06:26:30;62402.38;;;-147.88;100.00
69198;BME280;56311;50.298;8.514;2022-12-07T06:28:57;62402.38;;;-147.88;100.00
69198;BME280;56311;50.298;8.514;2022-12-07T06:31:24;62402.38;;;-147.88;100.00
69198;BME280;56311;50.298;8.514;2022-12-07T06:33:57;62402.38;;;-147.88;100.00
69198;BME280;56311;50.298;8.514;2022-12-07T06:36:23;62402.38;;;-147.88;100.00
69198;BME280;56311;50.298;8.514;2022-12-07T06:38:53;62402.38;;;-147.88;100.00
69198;BME280;56311;50.298;8.514;2022-12-07T06:41:20;62402.38;;;-147.88;100.00
69198;BME280;56311;50.298;8.514;2022-12-07T06:43:47;62402.38;;;-147.88;100.00
69198;BME280;56311;50.298;8.514;2022-12-07T06:46:21;62402.38;;;-147.88;100.00
69198;BME280;56311;50.298;8.514;2022-12-07T06:48:48;62402.38;;;-147.88;100.00
69198;BME280;56311;50.298;8.514;2022-12-07T06:51:16;62402.38;;;-147.88;100.00
69198;BME280;56311;50.298;8.514;2022-12-07T06:53:43;62402.38;;;-147.88;100.00
69198;BME280;56311;50.298;8.514;2022-12-07T06:56:10;62402.38;;;-147.88;100.00
69198;BME280;56311;50.298;8.514;2022-12-07T06:58:37;62402.38;;;-147.88;100.00
69198;BME280;56311;50.298;8.514;2022-12-07T07:01:08;62402.38;;;-147.88;100.00
69198;BME280;56311;50.298;8.514;2022-12-07T07:03:36;62402.38;;;-147.88;100.00
69198;BME280;56311;50.298;8.514;2022-12-07T07:06:03;62402.38;;;-147.88;100.00
69198;BME280;56311;50.298;8.514;2022-12-07T07:08:31;62402.38;;;-147.88;100.00
69198;BME280;56311;50.298;8.514;2022-12-07T07:10:58;62402.38;;;-147.88;100.00
69198;BME280;56311;50.298;8.514;2022-12-07T07:13:24;97702.25;;;1.37;100.00
69198;BME280;56311;50.298;8.514;2022-12-07T07:15:51;97695.44;;;1.77;100.00
69198;BME280;56311;50.298;8.514;2022-12-07T07:18:21;97688.72;;;1.74;100.00
69198;BME280;56311;50.298;8.514;2022-12-07T07:20:47;97696.22;;;1.77;100.00
69198;BME280;56311;50.298;8.514;2022-12-07T07:23:14;97699.94;;;1.76;100.00
69198;BME280;56311;50.298;8.514;2022-12-07T07:25:42;97702.06;;;1.74;100.00
69198;BME280;56311;50.298;8.514;2022-12-07T07:28:09;97697.28;;;1.76;100.00
69198;BME280;56311;50.298;8.514;2022-12-07T07:30:36;97704.59;;;1.81;100.00
69198;BME280;56311;50.298;8.514;2022-12-07T07:33:03;97705.41;;;1.81;100.00
69198;BME280;56311;50.298;8.514;2022-12-07T07:35:32;97707.50;;;1.79;100.00
69198;BME280;56311;50.298;8.514;2022-12-07T07:38:00;97713.63;;;1.80;100.00
69198;BME280;56311;50.298;8.514;2022-12-07T07:40:27;97710.41;;;1.78;100.00
69198;BME280;56311;50.298;8.514;2022-12-07T07:42:57;97713.63;;;1.80;100.00
69198;BME280;56311;50.298;8.514;2022-12-07T07:45:25;97718.75;;;1.81;100.00
69198;BME280;56311;50.298;8.514;2022-12-07T07:47:53;97716.09;;;1.81;100.00
69198;BME280;56311;50.298;8.514;2022-12-07T07:50:20;97718.50;;;1.83;100.00
69198;BME280;56311;50.298;8.514;2022-12-07T07:52:47;97709.69;;;1.82;100.00
69198;BME280;56311;50.298;8.514;2022-12-07T07:55:14;62402.38;;;-147.88;100.00
69198;BME280;56311;50.298;8.514;2022-12-07T07:57:41;62402.38;;;-147.88;100.00
69198;BME280;56311;50.298;8.514;2022-12-07T08:00:13;62402.38;;;-147.88;100.00
69198;BME280;56311;50.298;8.514;2022-12-07T08:02:41;62402.38;;;-147.88;100.00
69198;BME280;56311;50.298;8.514;2022-12-07T08:05:10;97709.69;;;1.82;100.00
69198;BME280;56311;50.298;8.514;2022-12-07T08:07:37;97701.56;;;2.01;100.00
69198;BME280;56311;50.298;8.514;2022-12-07T08:10:06;97693.91;;;2.04;100.00
69198;BME280;56311;50.298;8.514;2022-12-07T08:12:35;97703.75;;;2.04;100.00
69198;BME280;56311;50.298;8.514;2022-12-07T08:15:02;97697.16;;;1.95;100.00
69198;BME280;56311;50.298;8.514;2022-12-07T08:17:31;97697.84;;;2.02;100.00
69198;BME280;56311;50.298;8.514;2022-12-07T08:19:57;97698.91;;;2.01;100.00
69198;BME280;56311;50.298;8.514;2022-12-07T08:22:24;97700.97;;;1.99;100.00
69198;BME280;56311;50.298;8.514;2022-12-07T08:24:51;97704.94;;;2.08;100.00
69198;BME280;56311;50.298;8.514;2022-12-07T08:27:18;97708.38;;;2.20;100.00
69198;BME280;56311;50.298;8.514;2022-12-07T08:29:45;97706.97;;;2.42;100.00
69198;BME280;56311;50.298;8.514;2022-12-07T08:32:12;97703.44;;;2.53;100.00
69198;BME280;56311;50.298;8.514;2022-12-07T08:34:40;97705.31;;;2.52;100.00
69198;BME280;56311;50.298;8.514;2022-12-07T08:37:07;97696.16;;;2.36;100.00
69198;BME280;56311;50.298;8.514;2022-12-07T08:39:33;97708.97;;;2.34;100.00
69198;BME280;56311;50.298;8.514;2022-12-07T08:42:00;97707.56;;;2.32;100.00
69198;BME280;56311;50.298;8.514;2022-12-07T08:44:27;97705.03;;;2.25;100.00
69198;BME280;56311;50.298;8.514;2022-12-07T08:46:57;97703.28;;;2.31;100.00
69198;BME280;56311;50.298;8.514;2022-12-07T08:49:27;97700.81;;;2.41;100.00
69198;BME280;56311;50.298;8.514;2022-12-07T08:51:57;97710.19;;;2.44;100.00
69198;BME280;56311;50.298;8.514;2022-12-07T08:54:24;62402.38;;;-147.88;100.00
69198;BME280;56311;50.298;8.514;2022-12-07T08:56:54;62402.38;;;-147.88;100.00
69198;BME280;56311;50.298;8.514;2022-12-07T08:59:25;97709.63;;;2.53;100.00
69198;BME280;56311;50.298;8.514;2022-12-07T09:01:53;97714.00;;;2.60;100.00
69198;BME280;56311;50.298;8.514;2022-12-07T09:04:20;97717.13;;;2.57;100.00
69198;BME280;56311;50.298;8.514;2022-12-07T09:06:47;62402.38;;;-147.88;100.00
69198;BME280;56311;50.298;8.514;2022-12-07T09:09:16;62402.38;;;-147.88;100.00
69198;BME280;56311;50.298;8.514;2022-12-07T09:11:42;62402.38;;;-147.88;100.00
69198;BME280;56311;50.298;8.514;2022-12-07T09:14:11;62402.38;;;-147.88;100.00
69198;BME280;56311;50.298;8.514;2022-12-07T09:16:38;62402.38;;;-147.88;100.00
69198;BME280;56311;50.298;8.514;2022-12-07T09:19:06;62402.38;;;-147.88;100.00
69198;BME280;56311;50.298;8.514;2022-12-07T09:21:33;62402.38;;;-147.88;100.00
69198;BME280;56311;50.298;8.514;2022-12-07T09:23:59;62402.38;;;-147.88;100.00
69198;BME280;56311;50.298;8.514;2022-12-07T09:26:28;62402.38;;;-147.88;100.00
69198;BME280;56311;50.298;8.514;2022-12-07T09:28:55;62402.38;;;-147.88;100.00
69198;BME280;56311;50.298;8.514;2022-12-07T09:31:21;62402.38;;;-147.88;100.00
69198;BME280;56311;50.298;8.514;2022-12-07T09:33:54;62402.38;;;-147.88;100.00
69198;BME280;56311;50.298;8.514;2022-12-07T09:36:21;62402.38;;;-147.88;100.00
69198;BME280;56311;50.298;8.514;2022-12-07T09:38:48;62402.38;;;-147.88;100.00
69198;BME280;56311;50.298;8.514;2022-12-07T09:41:15;62402.38;;;-147.88;100.00
69198;BME280;56311;50.298;8.514;2022-12-07T09:43:43;62402.38;;;-147.88;100.00
69198;BME280;56311;50.298;8.514;2022-12-07T09:46:13;62402.38;;;-147.88;100.00
69198;BME280;56311;50.298;8.514;2022-12-07T09:48:42;62402.38;;;-147.88;100.00
69198;BME280;56311;50.298;8.514;2022-12-07T09:51:14;62402.38;;;-147.88;100.00
69198;BME280;56311;50.298;8.514;2022-12-07T09:53:49;62402.38;;;-147.88;100.00
69198;BME280;56311;50.298;8.514;2022-12-07T09:56:18;62402.38;;;-147.88;100.00
69198;BME280;56311;50.298;8.514;2022-12-07T09:58:47;62402.38;;;-147.88;100.00
69198;BME280;56311;50.298;8.514;2022-12-07T10:01:16;62402.38;;;-147.88;100.00
69198;BME280;56311;50.298;8.514;2022-12-07T10:03:49;62402.38;;;-147.88;100.00
69198;BME280;56311;50.298;8.514;2022-12-07T10:06:16;62402.38;;;-147.88;100.00
69198;BME280;56311;50.298;8.514;2022-12-07T10:08:43;62402.38;;;-147.88;100.00
69198;BME280;56311;50.298;8.514;2022-12-07T10:11:10;62402.38;;;-147.88;100.00
69198;BME280;56311;50.298;8.514;2022-12-07T10:13:39;62402.38;;;-147.88;100.00
69198;BME280;56311;50.298;8.514;2022-12-07T10:16:31;62402.38;;;-147.88;100.00
69198;BME280;56311;50.298;8.514;2022-12-07T10:19:18;62402.38;;;-147.88;100.00
69198;BME280;56311;50.298;8.514;2022-12-07T10:22:00;62402.38;;;-147.88;100.00
69198;BME280;56311;50.298;8.514;2022-12-07T10:24:27;62402.38;;;-147.88;100.00
69198;BME280;56311;50.298;8.514;2022-12-07T10:26:54;97717.13;;;2.57;100.00
69198;BME280;56311;50.298;8.514;2022-12-07T10:29:23;97696.88;;;2.73;100.00
69198;BME280;56311;50.298;8.514;2022-12-07T10:31:54;97699.31;;;2.74;100.00
69198;BME280;56311;50.298;8.514;2022-12-07T10:34:23;97695.44;;;2.82;100.00
69198;BME280;56311;50.298;8.514;2022-12-07T10:36:51;97700.44;;;3.07;100.00
69198;BME280;56311;50.298;8.514;2022-12-07T10:39:20;97686.31;;;3.24;100.00
69198;BME280;56311;50.298;8.514;2022-12-07T10:41:55;97698.53;;;3.19;100.00
69198;BME280;56311;50.298;8.514;2022-12-07T10:44:25;97700.84;;;3.16;100.00
69198;BME280;56311;50.298;8.514;2022-12-07T10:50:04;97681.22;;;2.93;100.00
69198;BME280;56311;50.298;8.514;2022-12-07T10:52:45;97684.22;;;2.97;100.00
69198;BME280;56311;50.298;8.514;2022-12-07T10:55:22;97676.00;;;3.32;100.00
69198;BME280;56311;50.298;8.514;2022-12-07T10:58:18;97670.09;;;3.47;100.00
69198;BME280;56311;50.298;8.514;2022-12-07T11:00:54;62402.38;;;-147.88;100.00
69198;BME280;56311;50.298;8.514;2022-12-07T11:03:37;97674.38;;;3.31;100.00
69198;BME280;56311;50.298;8.514;2022-12-07T11:06:16;97675.09;;;3.27;100.00
69198;BME280;56311;50.298;8.514;2022-12-07T11:08:57;62402.38;;;-147.88;100.00
69198;BME280;56311;50.298;8.514;2022-12-07T11:11:33;62402.38;;;-147.88;100.00
69198;BME280;56311;50.298;8.514;2022-12-07T11:14:06;62402.38;;;-147.88;100.00
69198;BME280;56311;50.298;8.514;2022-12-07T11:16:49;62402.38;;;-147.88;100.00
69198;BME280;56311;50.298;8.514;2022-12-07T11:19:32;62402.38;;;-147.88;100.00
69198;BME280;56311;50.298;8.514;2022-12-07T11:22:06;62402.38;;;-147.88;100.00
69198;BME280;56311;50.298;8.514;2022-12-07T11:24:42;62402.38;;;-147.88;100.00
69198;BME280;56311;50.298;8.514;2022-12-07T11:27:21;62402.38;;;-147.88;100.00
69198;BME280;56311;50.298;8.514;2022-12-07T11:30:10;62402.38;;;-147.88;100.00
69198;BME280;56311;50.298;8.514;2022-12-07T11:32:57;62402.38;;;-147.88;100.00
69198;BME280;56311;50.298;8.514;2022-12-07T11:35:40;62402.38;;;-147.88;100.00
69198;BME280;56311;50.298;8.514;2022-12-07T11:38:15;62402.38;;;-147.88;100.00
69198;BME280;56311;50.298;8.514;2022-12-07T11:40:48;62402.38;;;-147.88;100.00
69198;BME280;56311;50.298;8.514;2022-12-07T11:43:21;62402.38;;;-147.88;100.00
69198;BME280;56311;50.298;8.514;2022-12-07T11:45:55;62402.38;;;-147.88;100.00
69198;BME280;56311;50.298;8.514;2022-12-07T11:48:30;62402.38;;;-147.88;100.00
69198;BME280;56311;50.298;8.514;2022-12-07T11:51:01;62402.38;;;-147.88;100.00
69198;BME280;56311;50.298;8.514;2022-12-07T11:53:33;62402.38;;;-147.88;100.00
69198;BME280;56311;50.298;8.514;2022-12-07T11:56:07;97675.09;;;3.27;100.00
69198;BME280;56311;50.298;8.514;2022-12-07T11:58:42;97624.47;;;3.37;100.00
69198;BME280;56311;50.298;8.514;2022-12-07T12:01:22;97631.84;;;3.30;100.00
69198;BME280;56311;50.298;8.514;2022-12-07T12:03:55;97633.69;;;3.12;100.00
69198;BME280;56311;50.298;8.514;2022-12-07T12:06:25;97634.00;;;2.82;100.00
69198;BME280;56311;50.298;8.514;2022-12-07T12:08:56;97637.53;;;2.70;100.00
69198;BME280;56311;50.298;8.514;2022-12-07T12:11:54;97634.53;;;2.38;100.00
69198;BME280;56311;50.298;8.514;2022-12-07T12:14:53;62402.38;;;-147.88;100.00
69198;BME280;56311;50.298;8.514;2022-12-07T12:17:45;62402.38;;;-147.88;100.00
69198;BME280;56311;50.298;8.514;2022-12-07T12:20:21;97627.06;;;2.11;100.00
69198;BME280;56311;50.298;8.514;2022-12-07T12:22:54;62402.38;;;-147.88;100.00
69198;BME280;56311;50.298;8.514;2022-12-07T12:25:24;62402.38;;;-147.88;100.00
69198;BME280;56311;50.298;8.514;2022-12-07T12:27:54;62402.38;;;-147.88;100.00
69198;BME280;56311;50.298;8.514;2022-12-07T12:30:40;97619.94;;;2.29;100.00
69198;BME280;56311;50.298;8.514;2022-12-07T12:33:14;97615.41;;;2.29;100.00
69198;BME280;56311;50.298;8.514;2022-12-07T12:35:44;97607.84;;;2.38;100.00
69198;BME280;56311;50.298;8.514;2022-12-07T12:38:29;97611.63;;;2.42;100.00
69198;BME280;56311;50.298;8.514;2022-12-07T12:40:57;97603.88;;;2.41;100.00
69198;BME280;56311;50.298;8.514;2022-12-07T12:43:51;97602.00;;;2.41;100.00
69198;BME280;56311;50.298;8.514;2022-12-07T12:46:50;97595.16;;;2.45;100.00
69198;BME280;56311;50.298;8.514;2022-12-07T12:49:38;97594.91;;;2.47;100.00
69198;BME280;56311;50.298;8.514;2022-12-07T12:58:31;97590.56;;;2.58;100.00
69198;BME280;56311;50.298;8.514;2022-12-07T13:01:32;97595.31;;;2.55;100.00
69198;BME280;56311;50.298;8.514;2022-12-07T13:04:00;97597.34;;;2.48;100.00
69198;BME280;56311;50.298;8.514;2022-12-07T13:06:34;97595.72;;;2.47;100.00
69198;BME280;56311;50.298;8.514;2022-12-07T13:09:02;97591.25;;;2.36;100.00
69198;BME280;56311;50.298;8.514;2022-12-07T13:11:32;97587.09;;;2.28;100.00
69198;BME280;56311;50.298;8.514;2022-12-07T13:17:09;97588.47;;;2.31;100.00